Jump to content

  •  

BEMIDJI AIR FLIGHT CH822 FLOWN ON 11-24-2017 BY CAPTAIN TYLER HANUS

Pilot StatsCaptain Tyler Hanus (LDP525) • 262.7 total hours • 63 total flights [View Logbook]
FLIGHT DETAILS
StatusReceived and approved on 2017-11-24 at 13:11:53
Origin AirportMinneapolis-St Paul Intl (KMSP) • Minneapolis, Minnesota, United States (841 feet MSL)
Filed Flight PlanKMSP GEP J25 BRD KTVF
Destination AirportThief River Falls Regl (KTVF) • Thief River Falls, Minnesota, United States (1,116 feet MSL)
Alternate AirportNone Filed
AirlineBemidji Air
AircraftDe Havilland DHC-8-400 Dash 8/8Q (DH4 / DHC-8-400)
FS Aircraft UsedMJC8Q400_SVT
Cruising AltitudeFL220
Distance Flown227 nautical miles
Passengers Onboard45 passengers (64.29% full)
DEPARTURE DETAILS
Time Out08:30:14
Taxi Data60,092 lbs total with 8,213 lbs of fuel onboard
Takeoff Data08:31:29 (1 minutes after leaving gate/ramp) • 60,076 lbs total • 19° pitch at 8 knots
Departure METARKMSP 241153Z 20008KT 10SM SCT160 09/04 A2939 RMK AO2 SLP958 T00890039 10094 20078 58030
ARRIVAL DETAILS
Landing Data11:58:11 • 49,448 lbs total • 19° pitch doing 102 knots at a rate of -504.43 feet/minute with 2,714 lbs of fuel onboard
Time In12:01:10 (3 minutes after landing)
Ramp Weight49,420 lbs total
Total Fuel Used5,499 lbs
Total Block Time03:05:09 (3.1 hours) while 4 minutes were spent on the ground
Arrival METARKTVF 241701Z AUTO 29007KT 10SM BKN095 03/02 A2938 RMK AO2 RAE1622 SLP960 P0000 T00330017
MISCELLANEOUS DETAILS
LiveDISPATCH Version4.8.3.1
FS Version
FSUIPC Version4.97
OS VersionWindows 7 32-bit
Screen Resolution1360 x 768
Pilot's CommentsNo Comments Reported
FLIGHT MAP